sensor_id;sensor_type;location;lat;lon;timestamp;temperature;humidity
21580;DHT22;10951;59.656;9.666;2023-07-02T00:00:08;14.10;99.90
21580;DHT22;10951;59.656;9.666;2023-07-02T00:02:36;14.10;99.90
21580;DHT22;10951;59.656;9.666;2023-07-02T00:05:04;14.00;99.90
21580;DHT22;10951;59.656;9.666;2023-07-02T00:07:31;14.00;99.90
21580;DHT22;10951;59.656;9.666;2023-07-02T00:09:59;14.00;99.90
21580;DHT22;10951;59.656;9.666;2023-07-02T00:12:26;14.00;99.90
21580;DHT22;10951;59.656;9.666;2023-07-02T00:14:53;14.00;99.90
21580;DHT22;10951;59.656;9.666;2023-07-02T00:17:21;14.00;99.90
21580;DHT22;10951;59.656;9.666;2023-07-02T00:19:48;14.00;99.90
21580;DHT22;10951;59.656;9.666;2023-07-02T00:22:20;13.90;99.90
21580;DHT22;10951;59.656;9.666;2023-07-02T00:24:48;13.90;99.90
21580;DHT22;10951;59.656;9.666;2023-07-02T00:27:17;13.90;99.90
21580;DHT22;10951;59.656;9.666;2023-07-02T00:29:44;14.00;99.90
21580;DHT22;10951;59.656;9.666;2023-07-02T00:32:11;14.00;99.90
21580;DHT22;10951;59.656;9.666;2023-07-02T00:34:38;14.00;99.90
21580;DHT22;10951;59.656;9.666;2023-07-02T00:37:06;14.10;99.90
21580;DHT22;10951;59.656;9.666;2023-07-02T00:39:33;14.10;99.90
21580;DHT22;10951;59.656;9.666;2023-07-02T00:42:02;14.10;99.90
21580;DHT22;10951;59.656;9.666;2023-07-02T00:44:32;14.10;99.90
21580;DHT22;10951;59.656;9.666;2023-07-02T00:46:59;14.10;99.90
21580;DHT22;10951;59.656;9.666;2023-07-02T00:49:26;14.10;99.90
21580;DHT22;10951;59.656;9.666;2023-07-02T00:51:54;14.20;99.90
21580;DHT22;10951;59.656;9.666;2023-07-02T00:54:21;14.20;99.90
21580;DHT22;10951;59.656;9.666;2023-07-02T00:56:48;14.10;99.90
21580;DHT22;10951;59.656;9.666;2023-07-02T00:59:15;14.00;99.90
21580;DHT22;10951;59.656;9.666;2023-07-02T01:01:42;14.00;99.90
21580;DHT22;10951;59.656;9.666;2023-07-02T01:04:09;14.00;99.90
21580;DHT22;10951;59.656;9.666;2023-07-02T01:06:39;14.00;99.90
21580;DHT22;10951;59.656;9.666;2023-07-02T01:09:08;13.90;99.90
21580;DHT22;10951;59.656;9.666;2023-07-02T01:11:43;14.00;99.90
21580;DHT22;10951;59.656;9.666;2023-07-02T01:14:18;14.00;99.90
21580;DHT22;10951;59.656;9.666;2023-07-02T01:16:47;14.00;99.90
21580;DHT22;10951;59.656;9.666;2023-07-02T01:22:01;13.90;99.90
21580;DHT22;10951;59.656;9.666;2023-07-02T01:24:28;14.00;99.90
21580;DHT22;10951;59.656;9.666;2023-07-02T01:26:55;13.90;99.90
21580;DHT22;10951;59.656;9.666;2023-07-02T01:29:23;13.90;99.90
21580;DHT22;10951;59.656;9.666;2023-07-02T01:31:50;13.90;99.90
21580;DHT22;10951;59.656;9.666;2023-07-02T01:34:17;13.90;99.90
21580;DHT22;10951;59.656;9.666;2023-07-02T01:36:44;13.90;99.90
21580;DHT22;10951;59.656;9.666;2023-07-02T01:39:11;14.00;99.90
21580;DHT22;10951;59.656;9.666;2023-07-02T01:41:51;14.00;99.90
21580;DHT22;10951;59.656;9.666;2023-07-02T01:44:20;14.10;99.90
21580;DHT22;10951;59.656;9.666;2023-07-02T01:46:47;14.10;99.90
21580;DHT22;10951;59.656;9.666;2023-07-02T01:49:18;14.10;99.90
21580;DHT22;10951;59.656;9.666;2023-07-02T01:51:45;14.10;99.90
21580;DHT22;10951;59.656;9.666;2023-07-02T01:54:12;14.00;99.90
21580;DHT22;10951;59.656;9.666;2023-07-02T01:56:41;13.80;99.90
21580;DHT22;10951;59.656;9.666;2023-07-02T01:59:08;13.70;99.90
21580;DHT22;10951;59.656;9.666;2023-07-02T02:01:36;13.70;99.90
21580;DHT22;10951;59.656;9.666;2023-07-02T02:04:03;13.60;99.90
21580;DHT22;10951;59.656;9.666;2023-07-02T02:06:31;13.60;99.90
21580;DHT22;10951;59.656;9.666;2023-07-02T02:08:58;13.60;99.90
21580;DHT22;10951;59.656;9.666;2023-07-02T02:11:25;13.60;99.90
21580;DHT22;10951;59.656;9.666;2023-07-02T02:13:52;13.60;99.90
21580;DHT22;10951;59.656;9.666;2023-07-02T02:16:20;13.60;99.90
21580;DHT22;10951;59.656;9.666;2023-07-02T02:18:47;13.60;99.90
21580;DHT22;10951;59.656;9.666;2023-07-02T02:21:14;13.60;99.90
21580;DHT22;10951;59.656;9.666;2023-07-02T02:23:41;13.60;99.90
21580;DHT22;10951;59.656;9.666;2023-07-02T02:26:08;13.70;99.90
21580;DHT22;10951;59.656;9.666;2023-07-02T02:28:35;13.60;99.90
21580;DHT22;10951;59.656;9.666;2023-07-02T02:31:02;13.60;99.90
21580;DHT22;10951;59.656;9.666;2023-07-02T02:33:31;13.60;99.90
21580;DHT22;10951;59.656;9.666;2023-07-02T02:35:58;13.50;99.90
21580;DHT22;10951;59.656;9.666;2023-07-02T02:38:26;13.60;99.90
21580;DHT22;10951;59.656;9.666;2023-07-02T02:40:52;13.50;99.90
21580;DHT22;10951;59.656;9.666;2023-07-02T02:43:21;13.50;99.90
21580;DHT22;10951;59.656;9.666;2023-07-02T02:45:50;13.50;99.90
21580;DHT22;10951;59.656;9.666;2023-07-02T02:48:17;13.50;99.90
21580;DHT22;10951;59.656;9.666;2023-07-02T02:50:45;13.50;99.90
21580;DHT22;10951;59.656;9.666;2023-07-02T02:53:12;13.40;99.90
21580;DHT22;10951;59.656;9.666;2023-07-02T02:55:39;13.50;99.90
21580;DHT22;10951;59.656;9.666;2023-07-02T02:58:06;13.50;99.90
21580;DHT22;10951;59.656;9.666;2023-07-02T03:00:33;13.40;99.90
21580;DHT22;10951;59.656;9.666;2023-07-02T03:03:00;13.40;99.90
21580;DHT22;10951;59.656;9.666;2023-07-02T03:05:28;13.30;99.90
21580;DHT22;10951;59.656;9.666;2023-07-02T03:07:55;13.40;99.90
21580;DHT22;10951;59.656;9.666;2023-07-02T03:10:22;13.40;99.90
21580;DHT22;10951;59.656;9.666;2023-07-02T03:12:49;13.40;99.90
21580;DHT22;10951;59.656;9.666;2023-07-02T03:15:16;13.30;99.90
21580;DHT22;10951;59.656;9.666;2023-07-02T03:17:44;13.40;99.90
21580;DHT22;10951;59.656;9.666;2023-07-02T03:20:11;13.40;99.90
21580;DHT22;10951;59.656;9.666;2023-07-02T03:22:38;13.40;99.90
21580;DHT22;10951;59.656;9.666;2023-07-02T03:25:05;13.40;99.90
21580;DHT22;10951;59.656;9.666;2023-07-02T03:27:32;13.40;99.90
21580;DHT22;10951;59.656;9.666;2023-07-02T03:29:59;13.30;99.90
21580;DHT22;10951;59.656;9.666;2023-07-02T03:32:26;13.40;99.90
21580;DHT22;10951;59.656;9.666;2023-07-02T03:34:53;13.40;99.90
21580;DHT22;10951;59.656;9.666;2023-07-02T03:37:20;13.40;99.90
21580;DHT22;10951;59.656;9.666;2023-07-02T03:39:47;13.40;99.90
21580;DHT22;10951;59.656;9.666;2023-07-02T03:42:15;13.40;99.90
21580;DHT22;10951;59.656;9.666;2023-07-02T03:44:42;13.50;99.90
21580;DHT22;10951;59.656;9.666;2023-07-02T03:47:09;13.50;99.90
21580;DHT22;10951;59.656;9.666;2023-07-02T03:49:36;13.50;99.90
21580;DHT22;10951;59.656;9.666;2023-07-02T03:52:03;13.60;99.90
21580;DHT22;10951;59.656;9.666;2023-07-02T03:54:30;13.50;99.90
21580;DHT22;10951;59.656;9.666;2023-07-02T03:56:57;13.60;99.90
21580;DHT22;10951;59.656;9.666;2023-07-02T03:59:24;13.60;99.90
21580;DHT22;10951;59.656;9.666;2023-07-02T04:01:51;13.60;99.90
21580;DHT22;10951;59.656;9.666;2023-07-02T04:04:18;13.70;99.90
21580;DHT22;10951;59.656;9.666;2023-07-02T04:06:45;13.70;99.90
21580;DHT22;10951;59.656;9.666;2023-07-02T04:09:12;13.70;99.90
21580;DHT22;10951;59.656;9.666;2023-07-02T04:11:39;13.80;99.90
21580;DHT22;10951;59.656;9.666;2023-07-02T04:14:06;13.80;99.90
21580;DHT22;10951;59.656;9.666;2023-07-02T04:16:33;13.80;99.90
21580;DHT22;10951;59.656;9.666;2023-07-02T04:19:00;13.80;99.90
21580;DHT22;10951;59.656;9.666;2023-07-02T04:21:27;13.90;99.90
21580;DHT22;10951;59.656;9.666;2023-07-02T04:23:54;13.80;99.90
21580;DHT22;10951;59.656;9.666;2023-07-02T04:26:22;13.90;99.90
21580;DHT22;10951;59.656;9.666;2023-07-02T04:29:09;13.90;99.90
21580;DHT22;10951;59.656;9.666;2023-07-02T04:31:37;13.90;99.90
21580;DHT22;10951;59.656;9.666;2023-07-02T04:34:04;13.90;99.90
21580;DHT22;10951;59.656;9.666;2023-07-02T04:36:32;13.80;99.90
21580;DHT22;10951;59.656;9.666;2023-07-02T04:38:59;13.80;99.90
21580;DHT22;10951;59.656;9.666;2023-07-02T04:41:26;13.80;99.90
21580;DHT22;10951;59.656;9.666;2023-07-02T04:43:54;13.80;99.90
21580;DHT22;10951;59.656;9.666;2023-07-02T04:46:21;13.80;99.90
21580;DHT22;10951;59.656;9.666;2023-07-02T04:48:48;13.80;99.90
21580;DHT22;10951;59.656;9.666;2023-07-02T04:51:15;13.80;99.90
21580;DHT22;10951;59.656;9.666;2023-07-02T04:53:42;13.90;99.90
21580;DHT22;10951;59.656;9.666;2023-07-02T04:56:09;13.80;99.90
21580;DHT22;10951;59.656;9.666;2023-07-02T04:58:36;13.90;99.90
21580;DHT22;10951;59.656;9.666;2023-07-02T05:01:03;13.90;99.90
21580;DHT22;10951;59.656;9.666;2023-07-02T05:03:30;13.90;99.90
21580;DHT22;10951;59.656;9.666;2023-07-02T05:05:57;13.90;99.90
21580;DHT22;10951;59.656;9.666;2023-07-02T05:08:24;14.00;99.90
21580;DHT22;10951;59.656;9.666;2023-07-02T05:10:51;14.00;99.90
21580;DHT22;10951;59.656;9.666;2023-07-02T05:13:18;14.00;99.90
21580;DHT22;10951;59.656;9.666;2023-07-02T05:15:45;14.00;99.90
21580;DHT22;10951;59.656;9.666;2023-07-02T05:18:12;13.90;99.90
21580;DHT22;10951;59.656;9.666;2023-07-02T05:20:39;13.90;99.90
21580;DHT22;10951;59.656;9.666;2023-07-02T05:23:06;13.90;99.90
21580;DHT22;10951;59.656;9.666;2023-07-02T05:25:33;13.90;99.90
21580;DHT22;10951;59.656;9.666;2023-07-02T05:28:00;13.90;99.90
21580;DHT22;10951;59.656;9.666;2023-07-02T05:30:27;13.90;99.90
21580;DHT22;10951;59.656;9.666;2023-07-02T05:32:54;14.00;99.90
21580;DHT22;10951;59.656;9.666;2023-07-02T05:35:21;13.90;99.90
21580;DHT22;10951;59.656;9.666;2023-07-02T05:37:48;13.90;99.90
21580;DHT22;10951;59.656;9.666;2023-07-02T05:40:16;14.00;99.90
21580;DHT22;10951;59.656;9.666;2023-07-02T05:42:43;14.00;99.90
21580;DHT22;10951;59.656;9.666;2023-07-02T05:45:10;14.10;99.90
21580;DHT22;10951;59.656;9.666;2023-07-02T05:47:38;14.20;99.90
21580;DHT22;10951;59.656;9.666;2023-07-02T05:50:07;14.20;99.90
21580;DHT22;10951;59.656;9.666;2023-07-02T05:52:36;14.30;99.90
21580;DHT22;10951;59.656;9.666;2023-07-02T05:55:03;14.30;99.90
21580;DHT22;10951;59.656;9.666;2023-07-02T05:57:30;14.30;99.90
21580;DHT22;10951;59.656;9.666;2023-07-02T05:59:57;14.20;99.90
21580;DHT22;10951;59.656;9.666;2023-07-02T06:02:24;14.20;99.90
21580;DHT22;10951;59.656;9.666;2023-07-02T06:04:51;14.20;99.90
21580;DHT22;10951;59.656;9.666;2023-07-02T06:07:18;14.10;99.90
21580;DHT22;10951;59.656;9.666;2023-07-02T06:09:45;14.20;99.90
21580;DHT22;10951;59.656;9.666;2023-07-02T06:12:12;14.20;99.90
21580;DHT22;10951;59.656;9.666;2023-07-02T06:14:40;14.30;99.90
21580;DHT22;10951;59.656;9.666;2023-07-02T06:17:07;14.30;99.90
21580;DHT22;10951;59.656;9.666;2023-07-02T06:19:36;14.30;99.90
21580;DHT22;10951;59.656;9.666;2023-07-02T06:22:03;14.30;99.90
21580;DHT22;10951;59.656;9.666;2023-07-02T06:24:31;14.20;99.90
21580;DHT22;10951;59.656;9.666;2023-07-02T06:26:57;14.30;99.90
21580;DHT22;10951;59.656;9.666;2023-07-02T06:29:24;14.30;99.90
21580;DHT22;10951;59.656;9.666;2023-07-02T06:31:51;14.30;99.90
21580;DHT22;10951;59.656;9.666;2023-07-02T06:34:18;14.30;99.90
21580;DHT22;10951;59.656;9.666;2023-07-02T06:36:46;14.40;99.90
21580;DHT22;10951;59.656;9.666;2023-07-02T06:39:13;14.40;99.90
21580;DHT22;10951;59.656;9.666;2023-07-02T06:41:40;14.40;99.90
21580;DHT22;10951;59.656;9.666;2023-07-02T06:44:07;14.40;99.90
21580;DHT22;10951;59.656;9.666;2023-07-02T06:46:34;14.40;99.90
21580;DHT22;10951;59.656;9.666;2023-07-02T06:49:01;14.40;99.90
21580;DHT22;10951;59.656;9.666;2023-07-02T06:51:28;14.40;99.90
21580;DHT22;10951;59.656;9.666;2023-07-02T06:53:56;14.50;99.90
21580;DHT22;10951;59.656;9.666;2023-07-02T06:56:23;14.50;99.90
21580;DHT22;10951;59.656;9.666;2023-07-02T06:58:50;14.50;99.90
21580;DHT22;10951;59.656;9.666;2023-07-02T07:01:16;14.60;99.90
21580;DHT22;10951;59.656;9.666;2023-07-02T07:03:43;14.60;99.90
21580;DHT22;10951;59.656;9.666;2023-07-02T07:06:11;14.70;99.90
21580;DHT22;10951;59.656;9.666;2023-07-02T07:08:39;14.80;99.90
21580;DHT22;10951;59.656;9.666;2023-07-02T07:11:06;14.80;99.90
21580;DHT22;10951;59.656;9.666;2023-07-02T07:13:33;14.80;99.90
21580;DHT22;10951;59.656;9.666;2023-07-02T07:16:00;14.80;99.90
21580;DHT22;10951;59.656;9.666;2023-07-02T07:18:27;14.90;99.90
21580;DHT22;10951;59.656;9.666;2023-07-02T07:20:58;14.90;99.90
21580;DHT22;10951;59.656;9.666;2023-07-02T07:23:25;14.90;99.90
21580;DHT22;10951;59.656;9.666;2023-07-02T07:25:52;14.90;99.90
21580;DHT22;10951;59.656;9.666;2023-07-02T07:28:19;14.90;99.90
21580;DHT22;10951;59.656;9.666;2023-07-02T07:30:46;14.90;99.90
21580;DHT22;10951;59.656;9.666;2023-07-02T07:33:14;14.90;99.90
21580;DHT22;10951;59.656;9.666;2023-07-02T07:35:41;14.90;99.90
21580;DHT22;10951;59.656;9.666;2023-07-02T07:38:07;14.90;99.90
21580;DHT22;10951;59.656;9.666;2023-07-02T07:40:34;14.90;99.90
21580;DHT22;10951;59.656;9.666;2023-07-02T07:43:01;14.90;99.90
21580;DHT22;10951;59.656;9.666;2023-07-02T07:45:28;15.00;99.90
21580;DHT22;10951;59.656;9.666;2023-07-02T07:47:55;15.00;99.90
21580;DHT22;10951;59.656;9.666;2023-07-02T07:50:22;15.00;99.90
21580;DHT22;10951;59.656;9.666;2023-07-02T07:52:49;15.00;99.90
21580;DHT22;10951;59.656;9.666;2023-07-02T07:55:18;15.00;99.90
21580;DHT22;10951;59.656;9.666;2023-07-02T07:57:45;15.10;99.90
21580;DHT22;10951;59.656;9.666;2023-07-02T08:00:12;15.10;99.90
21580;DHT22;10951;59.656;9.666;2023-07-02T08:02:47;15.20;99.90
21580;DHT22;10951;59.656;9.666;2023-07-02T08:05:14;15.30;99.90
21580;DHT22;10951;59.656;9.666;2023-07-02T08:07:42;15.30;99.90
21580;DHT22;10951;59.656;9.666;2023-07-02T08:10:09;15.40;99.90
21580;DHT22;10951;59.656;9.666;2023-07-02T08:12:38;15.40;99.90
21580;DHT22;10951;59.656;9.666;2023-07-02T08:15:05;15.40;99.90
21580;DHT22;10951;59.656;9.666;2023-07-02T08:17:32;15.40;99.90
21580;DHT22;10951;59.656;9.666;2023-07-02T08:19:59;15.30;99.90
21580;DHT22;10951;59.656;9.666;2023-07-02T08:22:27;15.30;99.90
21580;DHT22;10951;59.656;9.666;2023-07-02T08:24:54;15.30;99.90
21580;DHT22;10951;59.656;9.666;2023-07-02T08:27:21;15.30;99.90
21580;DHT22;10951;59.656;9.666;2023-07-02T08:29:49;15.40;99.90
21580;DHT22;10951;59.656;9.666;2023-07-02T08:32:16;15.40;99.90
21580;DHT22;10951;59.656;9.666;2023-07-02T08:34:43;15.50;99.90
21580;DHT22;10951;59.656;9.666;2023-07-02T08:37:10;15.50;99.90
21580;DHT22;10951;59.656;9.666;2023-07-02T08:39:37;15.70;99.90
21580;DHT22;10951;59.656;9.666;2023-07-02T08:42:07;15.90;99.90
21580;DHT22;10951;59.656;9.666;2023-07-02T08:44:34;16.30;99.90
21580;DHT22;10951;59.656;9.666;2023-07-02T08:47:02;16.60;99.90
21580;DHT22;10951;59.656;9.666;2023-07-02T08:49:30;16.90;99.90
21580;DHT22;10951;59.656;9.666;2023-07-02T08:51:58;17.00;99.90
21580;DHT22;10951;59.656;9.666;2023-07-02T08:54:25;17.20;99.90
21580;DHT22;10951;59.656;9.666;2023-07-02T08:56:52;17.20;99.90
21580;DHT22;10951;59.656;9.666;2023-07-02T08:59:19;17.20;99.90
21580;DHT22;10951;59.656;9.666;2023-07-02T09:01:51;17.10;99.90
21580;DHT22;10951;59.656;9.666;2023-07-02T09:04:19;17.10;99.90
21580;DHT22;10951;59.656;9.666;2023-07-02T09:06:48;17.30;99.90
21580;DHT22;10951;59.656;9.666;2023-07-02T09:09:15;17.50;99.90
21580;DHT22;10951;59.656;9.666;2023-07-02T09:11:49;17.50;99.90
21580;DHT22;10951;59.656;9.666;2023-07-02T09:14:43;17.70;99.90
21580;DHT22;10951;59.656;9.666;2023-07-02T09:17:10;17.80;98.90
21580;DHT22;10951;59.656;9.666;2023-07-02T09:19:49;17.90;98.80
21580;DHT22;10951;59.656;9.666;2023-07-02T09:22:16;18.20;98.40
21580;DHT22;10951;59.656;9.666;2023-07-02T09:24:55;18.70;98.00
21580;DHT22;10951;59.656;9.666;2023-07-02T09:27:40;19.10;96.00
21580;DHT22;10951;59.656;9.666;2023-07-02T09:30:11;19.40;95.50
21580;DHT22;10951;59.656;9.666;2023-07-02T09:32:40;19.60;94.00
21580;DHT22;10951;59.656;9.666;2023-07-02T09:35:07;19.60;94.20
21580;DHT22;10951;59.656;9.666;2023-07-02T09:37:34;19.70;94.10
21580;DHT22;10951;59.656;9.666;2023-07-02T09:40:01;19.90;94.10
21580;DHT22;10951;59.656;9.666;2023-07-02T09:42:35;19.90;92.20
21580;DHT22;10951;59.656;9.666;2023-07-02T09:45:03;20.00;93.90
21580;DHT22;10951;59.656;9.666;2023-07-02T09:47:32;20.10;94.10
21580;DHT22;10951;59.656;9.666;2023-07-02T09:50:05;20.20;93.80
21580;DHT22;10951;59.656;9.666;2023-07-02T09:52:34;20.20;93.00
21580;DHT22;10951;59.656;9.666;2023-07-02T09:55:02;20.10;92.20
21580;DHT22;10951;59.656;9.666;2023-07-02T09:57:31;20.00;93.50
21580;DHT22;10951;59.656;9.666;2023-07-02T10:00:02;19.90;92.20
21580;DHT22;10951;59.656;9.666;2023-07-02T10:02:31;19.80;92.50
21580;DHT22;10951;59.656;9.666;2023-07-02T10:04:59;19.70;94.20
21580;DHT22;10951;59.656;9.666;2023-07-02T10:07:31;19.70;93.90
21580;DHT22;10951;59.656;9.666;2023-07-02T10:09:59;19.70;94.20
21580;DHT22;10951;59.656;9.666;2023-07-02T10:12:28;19.70;93.80
21580;DHT22;10951;59.656;9.666;2023-07-02T10:14:57;19.60;93.10
21580;DHT22;10951;59.656;9.666;2023-07-02T10:17:32;19.60;93.20
21580;DHT22;10951;59.656;9.666;2023-07-02T10:20:06;19.60;93.70
21580;DHT22;10951;59.656;9.666;2023-07-02T10:22:49;19.70;94.00
21580;DHT22;10951;59.656;9.666;2023-07-02T10:25:27;19.70;94.10
21580;DHT22;10951;59.656;9.666;2023-07-02T10:27:55;19.70;92.70
21580;DHT22;10951;59.656;9.666;2023-07-02T10:30:39;19.70;93.60
21580;DHT22;10951;59.656;9.666;2023-07-02T10:33:17;19.60;93.80
21580;DHT22;10951;59.656;9.666;2023-07-02T10:35:48;19.60;93.80
21580;DHT22;10951;59.656;9.666;2023-07-02T10:38:21;19.50;93.40
21580;DHT22;10951;59.656;9.666;2023-07-02T10:40:55;19.50;93.80
21580;DHT22;10951;59.656;9.666;2023-07-02T10:43:27;19.50;94.20
21580;DHT22;10951;59.656;9.666;2023-07-02T10:45:58;19.60;94.60
21580;DHT22;10951;59.656;9.666;2023-07-02T10:48:28;19.70;93.30
21580;DHT22;10951;59.656;9.666;2023-07-02T10:50:56;19.70;92.90
21580;DHT22;10951;59.656;9.666;2023-07-02T10:53:23;19.70;93.00
21580;DHT22;10951;59.656;9.666;2023-07-02T10:55:54;19.80;93.80
21580;DHT22;10951;59.656;9.666;2023-07-02T10:58:24;19.80;93.70
21580;DHT22;10951;59.656;9.666;2023-07-02T11:00:53;19.80;93.10
21580;DHT22;10951;59.656;9.666;2023-07-02T11:03:23;19.80;92.80
21580;DHT22;10951;59.656;9.666;2023-07-02T11:05:51;19.80;92.50
21580;DHT22;10951;59.656;9.666;2023-07-02T11:08:19;19.70;92.90
21580;DHT22;10951;59.656;9.666;2023-07-02T11:10:49;19.70;92.90
21580;DHT22;10951;59.656;9.666;2023-07-02T11:13:18;19.60;92.40
21580;DHT22;10951;59.656;9.666;2023-07-02T11:15:49;19.40;92.00
21580;DHT22;10951;59.656;9.666;2023-07-02T11:18:19;19.10;94.20
21580;DHT22;10951;59.656;9.666;2023-07-02T11:20:48;19.00;94.70
21580;DHT22;10951;59.656;9.666;2023-07-02T11:23:18;18.90;94.30
21580;DHT22;10951;59.656;9.666;2023-07-02T11:26:00;18.70;94.60
21580;DHT22;10951;59.656;9.666;2023-07-02T11:28:29;18.60;95.30
21580;DHT22;10951;59.656;9.666;2023-07-02T11:30:58;18.40;95.70
21580;DHT22;10951;59.656;9.666;2023-07-02T11:33:39;18.30;95.30
21580;DHT22;10951;59.656;9.666;2023-07-02T11:36:08;18.00;95.60
21580;DHT22;10951;59.656;9.666;2023-07-02T11:38:49;17.70;95.70
21580;DHT22;10951;59.656;9.666;2023-07-02T11:41:16;17.50;96.10
21580;DHT22;10951;59.656;9.666;2023-07-02T11:43:47;17.40;96.30
21580;DHT22;10951;59.656;9.666;2023-07-02T11:46:14;17.50;96.70
21580;DHT22;10951;59.656;9.666;2023-07-02T11:48:41;17.60;96.60
21580;DHT22;10951;59.656;9.666;2023-07-02T11:51:08;17.80;96.80
21580;DHT22;10951;59.656;9.666;2023-07-02T11:53:38;17.90;96.60
21580;DHT22;10951;59.656;9.666;2023-07-02T11:56:05;18.10;96.00
21580;DHT22;10951;59.656;9.666;2023-07-02T11:58:32;18.10;96.00
21580;DHT22;10951;59.656;9.666;2023-07-02T12:00:59;18.00;95.50
21580;DHT22;10951;59.656;9.666;2023-07-02T12:03:26;17.80;96.10
21580;DHT22;10951;59.656;9.666;2023-07-02T12:05:58;17.70;96.40
21580;DHT22;10951;59.656;9.666;2023-07-02T12:08:26;17.70;96.10
21580;DHT22;10951;59.656;9.666;2023-07-02T12:10:53;17.80;96.30
21580;DHT22;10951;59.656;9.666;2023-07-02T12:13:20;17.80;95.60
21580;DHT22;10951;59.656;9.666;2023-07-02T12:15:49;17.90;95.80
21580;DHT22;10951;59.656;9.666;2023-07-02T12:18:18;18.00;95.20
21580;DHT22;10951;59.656;9.666;2023-07-02T12:20:45;18.10;95.20
21580;DHT22;10951;59.656;9.666;2023-07-02T12:23:13;18.10;95.00
21580;DHT22;10951;59.656;9.666;2023-07-02T12:25:40;18.10;94.60
21580;DHT22;10951;59.656;9.666;2023-07-02T12:28:07;18.00;94.60
21580;DHT22;10951;59.656;9.666;2023-07-02T12:30:37;18.00;94.40
21580;DHT22;10951;59.656;9.666;2023-07-02T12:33:06;18.00;94.50
21580;DHT22;10951;59.656;9.666;2023-07-02T12:35:33;18.00;94.10
21580;DHT22;10951;59.656;9.666;2023-07-02T12:38:00;17.90;94.00
21580;DHT22;10951;59.656;9.666;2023-07-02T12:40:30;17.90;93.90
21580;DHT22;10951;59.656;9.666;2023-07-02T12:42:57;18.00;94.20
21580;DHT22;10951;59.656;9.666;2023-07-02T12:45:24;18.00;95.10
21580;DHT22;10951;59.656;9.666;2023-07-02T12:47:51;18.10;94.10
21580;DHT22;10951;59.656;9.666;2023-07-02T12:50:18;18.20;94.40
21580;DHT22;10951;59.656;9.666;2023-07-02T12:52:46;18.30;94.30
21580;DHT22;10951;59.656;9.666;2023-07-02T12:55:13;18.30;94.80
21580;DHT22;10951;59.656;9.666;2023-07-02T12:57:40;18.50;94.60
21580;DHT22;10951;59.656;9.666;2023-07-02T13:00:07;18.70;94.50
21580;DHT22;10951;59.656;9.666;2023-07-02T13:02:36;18.80;94.20
21580;DHT22;10951;59.656;9.666;2023-07-02T13:05:15;18.90;94.40
21580;DHT22;10951;59.656;9.666;2023-07-02T13:07:43;19.00;94.80
21580;DHT22;10951;59.656;9.666;2023-07-02T13:10:10;19.00;93.90
21580;DHT22;10951;59.656;9.666;2023-07-02T13:12:37;19.00;94.00
21580;DHT22;10951;59.656;9.666;2023-07-02T13:15:07;18.80;94.40
21580;DHT22;10951;59.656;9.666;2023-07-02T13:17:35;18.70;94.40
21580;DHT22;10951;59.656;9.666;2023-07-02T13:20:02;18.70;94.80
21580;DHT22;10951;59.656;9.666;2023-07-02T13:22:32;18.70;93.90
21580;DHT22;10951;59.656;9.666;2023-07-02T13:24:59;18.60;93.70
21580;DHT22;10951;59.656;9.666;2023-07-02T13:27:26;18.60;93.80
21580;DHT22;10951;59.656;9.666;2023-07-02T13:29:53;18.60;92.80
21580;DHT22;10951;59.656;9.666;2023-07-02T13:32:20;18.60;92.70
21580;DHT22;10951;59.656;9.666;2023-07-02T13:34:47;18.70;92.40
21580;DHT22;10951;59.656;9.666;2023-07-02T13:37:14;18.70;93.20
21580;DHT22;10951;59.656;9.666;2023-07-02T13:39:48;18.80;93.80
21580;DHT22;10951;59.656;9.666;2023-07-02T13:42:15;18.90;93.10
21580;DHT22;10951;59.656;9.666;2023-07-02T13:44:42;19.00;92.60
21580;DHT22;10951;59.656;9.666;2023-07-02T13:47:09;19.20;92.60
21580;DHT22;10951;59.656;9.666;2023-07-02T13:49:37;19.50;92.80
21580;DHT22;10951;59.656;9.666;2023-07-02T13:52:05;19.60;92.20
21580;DHT22;10951;59.656;9.666;2023-07-02T13:54:32;19.60;92.50
21580;DHT22;10951;59.656;9.666;2023-07-02T13:57:03;19.60;92.10
21580;DHT22;10951;59.656;9.666;2023-07-02T13:59:30;19.60;92.00
21580;DHT22;10951;59.656;9.666;2023-07-02T14:01:57;19.70;92.00
21580;DHT22;10951;59.656;9.666;2023-07-02T14:04:24;19.80;92.10
21580;DHT22;10951;59.656;9.666;2023-07-02T14:06:51;20.00;91.50
21580;DHT22;10951;59.656;9.666;2023-07-02T14:09:18;20.20;90.80
21580;DHT22;10951;59.656;9.666;2023-07-02T14:11:45;20.40;90.40
21580;DHT22;10951;59.656;9.666;2023-07-02T14:14:12;20.40;88.30
21580;DHT22;10951;59.656;9.666;2023-07-02T14:16:39;20.40;89.20
21580;DHT22;10951;59.656;9.666;2023-07-02T14:19:07;20.40;90.10
21580;DHT22;10951;59.656;9.666;2023-07-02T14:21:34;20.60;90.90
21580;DHT22;10951;59.656;9.666;2023-07-02T14:24:01;20.70;91.20
21580;DHT22;10951;59.656;9.666;2023-07-02T14:26:29;20.80;90.80
21580;DHT22;10951;59.656;9.666;2023-07-02T14:28:57;20.90;91.40
21580;DHT22;10951;59.656;9.666;2023-07-02T14:31:24;20.90;90.70
21580;DHT22;10951;59.656;9.666;2023-07-02T14:33:52;20.80;90.50
21580;DHT22;10951;59.656;9.666;2023-07-02T14:36:19;20.50;90.90
21580;DHT22;10951;59.656;9.666;2023-07-02T14:38:46;20.40;90.50
21580;DHT22;10951;59.656;9.666;2023-07-02T14:41:13;20.40;90.80
21580;DHT22;10951;59.656;9.666;2023-07-02T14:43:40;20.50;90.70
21580;DHT22;10951;59.656;9.666;2023-07-02T14:46:07;20.40;90.60
21580;DHT22;10951;59.656;9.666;2023-07-02T14:48:34;20.10;90.60
21580;DHT22;10951;59.656;9.666;2023-07-02T14:51:02;20.00;90.80
21580;DHT22;10951;59.656;9.666;2023-07-02T14:53:31;19.80;91.10
21580;DHT22;10951;59.656;9.666;2023-07-02T14:56:00;19.70;91.10
21580;DHT22;10951;59.656;9.666;2023-07-02T14:58:29;19.80;91.30
21580;DHT22;10951;59.656;9.666;2023-07-02T15:00:57;19.80;91.40
21580;DHT22;10951;59.656;9.666;2023-07-02T15:03:26;19.70;91.40
21580;DHT22;10951;59.656;9.666;2023-07-02T15:06:05;19.60;91.50
21580;DHT22;10951;59.656;9.666;2023-07-02T15:08:32;19.60;91.70
21580;DHT22;10951;59.656;9.666;2023-07-02T15:11:01;19.40;91.80
21580;DHT22;10951;59.656;9.666;2023-07-02T15:13:28;19.30;92.10
21580;DHT22;10951;59.656;9.666;2023-07-02T15:15:55;19.20;93.00
21580;DHT22;10951;59.656;9.666;2023-07-02T15:18:22;19.10;93.00
21580;DHT22;10951;59.656;9.666;2023-07-02T15:20:50;19.00;92.90
21580;DHT22;10951;59.656;9.666;2023-07-02T15:23:21;18.80;92.60
21580;DHT22;10951;59.656;9.666;2023-07-02T15:25:54;18.60;92.80
21580;DHT22;10951;59.656;9.666;2023-07-02T15:28:22;18.60;93.20
21580;DHT22;10951;59.656;9.666;2023-07-02T15:31:02;18.50;93.60
21580;DHT22;10951;59.656;9.666;2023-07-02T15:33:29;18.40;93.90
21580;DHT22;10951;59.656;9.666;2023-07-02T15:35:59;18.30;94.50
21580;DHT22;10951;59.656;9.666;2023-07-02T15:38:27;18.20;94.70